createdAt,value
2022-07-27T00:00:55.818Z,80.93
2022-07-27T00:01:55.796Z,81.22
2022-07-27T00:02:55.821Z,80.93
2022-07-27T00:03:55.876Z,81.12
2022-07-27T00:04:55.893Z,80.93
2022-07-27T00:05:55.903Z,81.02
2022-07-27T00:06:55.936Z,81.31
2022-07-27T00:07:55.959Z,81.12
2022-07-27T00:08:55.984Z,81.31
2022-07-27T00:09:56.012Z,81.98
2022-07-27T00:10:56.036Z,81.31
2022-07-27T00:11:56.062Z,81.41
2022-07-27T00:12:56.095Z,81.51
2022-07-27T00:13:56.114Z,81.79
2022-07-27T00:14:56.143Z,81.31
2022-07-27T00:15:56.229Z,82.27
2022-07-27T00:16:56.193Z,82.27
2022-07-27T00:17:56.225Z,82.56
2022-07-27T00:18:56.249Z,82.56
2022-07-27T00:19:56.275Z,81.98
2022-07-27T00:20:56.305Z,82.27
2022-07-27T00:21:56.333Z,82.37
2022-07-27T00:22:56.365Z,82.46
2022-07-27T00:23:56.382Z,82.56
2022-07-27T00:24:56.406Z,82.75
2022-07-27T00:25:56.441Z,83.04
2022-07-27T00:26:56.459Z,82.65
2022-07-27T00:27:56.487Z,82.85
2022-07-27T00:28:56.515Z,82.85
2022-07-27T00:29:56.542Z,83.52
2022-07-27T00:30:56.604Z,83.91
2022-07-27T00:31:56.631Z,84.25
2022-07-27T00:32:56.621Z,84.25
2022-07-27T00:33:56.644Z,83.86
2022-07-27T00:34:56.670Z,84.34
2022-07-27T00:35:56.701Z,83.86
2022-07-27T00:36:56.726Z,84.15
2022-07-27T00:37:56.751Z,84.15
2022-07-27T00:38:56.778Z,84.15
2022-07-27T00:39:56.804Z,84.72
2022-07-27T00:40:56.831Z,84.91
2022-07-27T00:41:56.856Z,84.91
2022-07-27T00:42:56.883Z,85.01
2022-07-27T00:43:56.911Z,85.88
2022-07-27T00:44:56.933Z,85.64
2022-07-27T00:45:56.960Z,85.78
2022-07-27T00:46:57.040Z,85.88
2022-07-27T00:47:57.016Z,86.02
2022-07-27T00:48:57.088Z,85.93
2022-07-27T00:49:57.066Z,86.07
2022-07-27T00:50:57.093Z,86.31
2022-07-27T00:51:57.118Z,85.83
2022-07-27T00:52:57.149Z,86.21
2022-07-27T00:53:57.170Z,86.88
2022-07-27T00:54:57.196Z,86.88
2022-07-27T00:55:57.224Z,87.08
2022-07-27T00:56:57.251Z,86.98
2022-07-27T00:57:58.783Z,87.17
2022-07-27T00:58:57.302Z,87.17
2022-07-27T00:59:57.328Z,86.79
2022-07-27T01:00:57.387Z,86.69
2022-07-27T01:01:57.488Z,87.08
2022-07-27T01:02:57.829Z,87.27
2022-07-27T01:03:57.435Z,87.08
2022-07-27T01:04:57.460Z,86.88
2022-07-27T01:05:57.485Z,87.17
2022-07-27T01:06:57.507Z,87.17
2022-07-27T01:07:57.537Z,86.69
2022-07-27T01:08:57.564Z,86.98
2022-07-27T01:09:57.592Z,87.08
2022-07-27T01:10:57.621Z,87.37
2022-07-27T01:11:57.642Z,86.98
2022-07-27T01:12:57.667Z,86.69
2022-07-27T01:13:57.698Z,87.65
2022-07-27T01:14:57.723Z,87.46
2022-07-27T01:15:57.806Z,87.55
2022-07-27T01:16:57.771Z,87.55
2022-07-27T01:17:57.796Z,87.37
2022-07-27T01:18:57.835Z,87.37
2022-07-27T01:19:57.851Z,87.55
2022-07-27T01:20:57.876Z,87.37
2022-07-27T01:21:57.904Z,87.37
2022-07-27T01:22:57.930Z,87.46
2022-07-27T01:23:57.954Z,87.46
2022-07-27T01:24:57.983Z,87.46
2022-07-27T01:25:58.010Z,87.55
2022-07-27T01:26:58.034Z,87.65
2022-07-27T01:27:58.060Z,88.42
2022-07-27T01:28:58.086Z,88.32
2022-07-27T01:29:58.113Z,88.51
2022-07-27T01:30:58.198Z,88.23
2022-07-27T01:31:58.162Z,88.23
2022-07-27T01:32:58.189Z,88.32
2022-07-27T01:33:58.215Z,88.18
2022-07-27T01:34:58.242Z,88.13
2022-07-27T01:35:58.269Z,88.28
2022-07-27T01:36:58.296Z,88.66
2022-07-27T01:37:58.321Z,88.47
2022-07-27T01:38:58.345Z,88.85
2022-07-27T01:39:58.370Z,89.33
2022-07-27T01:40:58.401Z,89.23
2022-07-27T01:41:58.422Z,89.43
2022-07-27T01:42:58.453Z,89.04
2022-07-27T01:43:58.472Z,89.81
2022-07-27T01:44:58.494Z,89.62
2022-07-27T01:45:58.566Z,89.43
2022-07-27T01:46:58.549Z,89.72
2022-07-27T01:47:58.577Z,89.90
2022-07-27T01:48:58.663Z,90.00
2022-07-27T01:49:58.629Z,89.90
2022-07-27T01:50:58.653Z,90.00
2022-07-27T01:51:58.677Z,90.09
2022-07-27T01:52:58.707Z,89.90
2022-07-27T01:53:58.732Z,90.44
2022-07-27T01:54:58.754Z,90.29
2022-07-27T01:55:58.782Z,90.34
2022-07-27T01:56:58.817Z,90.82
2022-07-27T01:57:58.833Z,90.96
2022-07-27T01:58:58.856Z,90.63
2022-07-27T01:59:58.884Z,90.53
2022-07-27T02:00:58.910Z,90.24
2022-07-27T02:01:59.010Z,90.34
2022-07-27T02:02:58.964Z,90.72
2022-07-27T02:03:58.983Z,90.53
2022-07-27T02:04:59.095Z,91.11
2022-07-27T02:05:59.034Z,91.30
2022-07-27T02:06:59.057Z,91.68
2022-07-27T02:07:59.086Z,91.30
2022-07-27T02:08:59.110Z,92.25
2022-07-27T02:09:59.134Z,92.25
2022-07-27T02:10:59.159Z,92.25
2022-07-27T02:11:59.188Z,92.44
2022-07-27T02:12:59.222Z,92.44
2022-07-27T02:13:59.236Z,92.44
2022-07-27T02:14:59.264Z,92.44
2022-07-27T02:15:59.358Z,92.63
2022-07-27T02:16:59.314Z,92.83
2022-07-27T02:17:59.339Z,93.21
2022-07-27T02:18:59.362Z,93.02
2022-07-27T02:19:59.390Z,93.02
2022-07-27T02:20:59.415Z,93.30
2022-07-27T02:21:59.442Z,92.88
2022-07-27T02:22:59.463Z,92.83
2022-07-27T02:23:59.488Z,93.40
2022-07-27T02:24:59.513Z,93.50
2022-07-27T02:25:59.540Z,93.40
2022-07-27T02:26:59.574Z,93.35
2022-07-27T02:27:59.592Z,94.21
2022-07-27T02:28:59.621Z,94.02
2022-07-27T02:29:59.644Z,94.02
2022-07-27T02:30:59.667Z,94.02
2022-07-27T02:31:59.688Z,94.70
2022-07-27T02:32:59.852Z,94.41
2022-07-27T02:33:59.744Z,94.70
2022-07-27T02:34:59.767Z,94.89
2022-07-27T02:35:59.793Z,95.07
2022-07-27T02:36:59.813Z,94.89
2022-07-27T02:37:59.843Z,94.89
2022-07-27T02:38:59.864Z,94.98
2022-07-27T02:39:59.894Z,95.27
2022-07-27T02:40:59.915Z,95.17
2022-07-27T02:41:59.942Z,95.36
2022-07-27T02:42:59.969Z,95.36
2022-07-27T02:44:00.002Z,95.36
2022-07-27T02:45:00.017Z,95.46
2022-07-27T02:46:00.092Z,95.65
2022-07-27T02:47:00.085Z,96.32
2022-07-27T02:48:00.104Z,96.61
2022-07-27T02:49:00.194Z,96.61
2022-07-27T02:50:00.188Z,96.42
2022-07-27T02:51:00.166Z,96.13
2022-07-27T02:52:00.195Z,96.51
2022-07-27T02:53:00.218Z,96.32
2022-07-27T02:54:00.248Z,96.70
2022-07-27T02:55:00.271Z,96.99
2022-07-27T02:56:00.294Z,96.99
2022-07-27T02:57:00.320Z,96.61
2022-07-27T02:58:00.344Z,96.42
2022-07-27T02:59:00.371Z,96.42
2022-07-27T03:00:00.416Z,97.28
2022-07-27T03:01:00.422Z,97.08
2022-07-27T03:02:00.509Z,96.99
2022-07-27T03:03:00.468Z,96.99
2022-07-27T03:04:00.543Z,96.89
2022-07-27T03:05:00.516Z,97.56
2022-07-27T03:06:00.546Z,97.66
2022-07-27T03:07:00.574Z,97.75
2022-07-27T03:08:00.594Z,97.85
2022-07-27T03:09:00.620Z,97.66
2022-07-27T03:10:00.651Z,97.85
2022-07-27T03:11:00.675Z,97.66
2022-07-27T03:12:00.704Z,97.95
2022-07-27T03:13:00.726Z,97.85
2022-07-27T03:14:00.749Z,97.47
2022-07-27T03:15:00.771Z,97.95
2022-07-27T03:16:00.845Z,97.75
2022-07-27T03:17:00.821Z,98.43
2022-07-27T03:18:00.849Z,98.24
2022-07-27T03:19:00.871Z,97.75
2022-07-27T03:20:00.906Z,97.80
2022-07-27T03:21:00.926Z,97.56
2022-07-27T03:22:00.950Z,97.90
2022-07-27T03:23:00.986Z,97.52
2022-07-27T03:24:01.003Z,97.80
2022-07-27T03:25:01.027Z,97.37
2022-07-27T03:26:01.051Z,97.47
2022-07-27T03:27:01.076Z,97.52
2022-07-27T03:28:04.212Z,97.23
2022-07-27T03:29:01.129Z,96.84
2022-07-27T03:30:01.151Z,97.13
2022-07-27T03:31:01.337Z,97.42
2022-07-27T03:32:01.217Z,96.94
2022-07-27T03:33:01.231Z,96.47
2022-07-27T03:34:02.194Z,96.94
2022-07-27T03:35:01.278Z,96.66
2022-07-27T03:36:01.309Z,96.13
2022-07-27T03:37:01.333Z,95.51
2022-07-27T03:38:01.359Z,95.61
2022-07-27T03:39:05.902Z,95.70
2022-07-27T03:40:01.407Z,95.79
2022-07-27T03:41:01.432Z,95.98
2022-07-27T03:42:01.458Z,95.51
2022-07-27T03:43:01.483Z,95.89
2022-07-27T03:44:01.508Z,95.31
2022-07-27T03:45:01.543Z,96.27
2022-07-27T03:46:01.614Z,96.61
2022-07-27T03:47:01.582Z,95.46
2022-07-27T03:48:01.610Z,95.41
2022-07-27T03:49:01.710Z,96.32
2022-07-27T03:50:01.662Z,96.27
2022-07-27T03:51:01.686Z,96.13
2022-07-27T03:52:01.718Z,96.61
2022-07-27T03:53:01.736Z,96.99
2022-07-27T03:54:01.763Z,96.80
2022-07-27T03:55:01.803Z,96.42
2022-07-27T03:56:01.812Z,97.08
2022-07-27T03:57:01.843Z,97.08
2022-07-27T03:58:01.863Z,97.37
2022-07-27T03:59:01.887Z,97.18
2022-07-27T04:00:01.913Z,97.08
2022-07-27T04:01:02.009Z,97.08
2022-07-27T04:02:02.008Z,97.56
2022-07-27T04:03:01.995Z,97.75
2022-07-27T04:04:02.021Z,97.47
2022-07-27T04:05:02.050Z,97.75
2022-07-27T04:06:02.067Z,97.56
2022-07-27T04:07:02.092Z,97.75
2022-07-27T04:08:02.121Z,98.04
2022-07-27T04:09:08.643Z,97.85
2022-07-27T04:10:02.223Z,97.47
2022-07-27T04:11:02.194Z,98.33
2022-07-27T04:12:02.211Z,97.95
2022-07-27T04:13:02.242Z,98.90
2022-07-27T04:14:02.267Z,98.90
2022-07-27T04:15:02.292Z,98.90
2022-07-27T04:16:02.318Z,98.33
2022-07-27T04:17:02.449Z,98.24
2022-07-27T04:18:02.366Z,98.14
2022-07-27T04:19:02.388Z,98.43
2022-07-27T04:20:02.420Z,99.00
2022-07-27T04:21:02.447Z,98.61
2022-07-27T04:22:02.467Z,98.61
2022-07-27T04:23:02.493Z,98.43
2022-07-27T04:24:02.514Z,98.52
2022-07-27T04:25:02.541Z,97.85
2022-07-27T04:26:02.569Z,97.85
2022-07-27T04:27:02.600Z,98.04
2022-07-27T04:28:02.625Z,97.47
2022-07-27T04:29:02.644Z,97.71
2022-07-27T04:30:04.535Z,97.61
2022-07-27T04:31:02.754Z,97.80
2022-07-27T04:32:02.721Z,96.47
2022-07-27T04:33:02.746Z,96.37
2022-07-27T04:34:02.772Z,95.61
2022-07-27T04:35:02.813Z,95.61
2022-07-27T04:36:02.822Z,95.61
2022-07-27T04:37:02.848Z,95.61
2022-07-27T04:38:02.871Z,95.89
2022-07-27T04:39:02.895Z,95.12
2022-07-27T04:40:02.955Z,95.22
2022-07-27T04:41:02.946Z,94.93
2022-07-27T04:42:02.974Z,95.12
2022-07-27T04:43:03.009Z,95.61
2022-07-27T04:44:03.026Z,94.93
2022-07-27T04:45:03.053Z,95.03
2022-07-27T04:46:03.133Z,94.93
2022-07-27T04:47:03.097Z,95.03
2022-07-27T04:48:03.122Z,94.31
2022-07-27T04:49:03.228Z,93.98
2022-07-27T04:50:03.181Z,91.77
2022-07-27T04:51:03.201Z,90.47
2022-07-27T04:52:03.227Z,89.47
2022-07-27T04:53:03.254Z,87.49
2022-07-27T04:54:03.280Z,85.52
2022-07-27T04:55:03.307Z,83.84
2022-07-27T04:56:03.333Z,81.43
2022-07-27T04:57:03.359Z,80.51
2022-07-27T04:58:10.622Z,80.17
2022-07-27T05:00:07.885Z,76.75
2022-07-27T05:01:07.515Z,76.17
2022-07-27T05:03:11.923Z,75.34
2022-07-27T05:04:11.516Z,73.71
2022-07-27T05:06:04.420Z,73.22
2022-07-27T05:07:04.433Z,72.84
2022-07-27T05:09:09.107Z,72.11
2022-07-27T05:10:08.483Z,72.59
2022-07-27T05:12:12.507Z,71.31
2022-07-27T05:13:12.523Z,69.96
2022-07-27T05:15:17.033Z,70.06
2022-07-27T05:16:16.767Z,69.38
2022-07-27T05:18:20.593Z,69.80
2022-07-27T05:19:20.613Z,68.39
2022-07-27T05:21:25.120Z,67.94
2022-07-27T05:22:24.666Z,68.52
2022-07-27T05:24:28.689Z,70.41
2022-07-27T05:25:28.712Z,71.14
2022-07-27T05:27:33.709Z,71.59
2022-07-27T05:28:32.764Z,72.11
2022-07-27T05:30:36.791Z,71.62
2022-07-27T05:31:36.858Z,71.72
2022-07-27T05:33:45.123Z,71.18
2022-07-27T05:34:40.855Z,70.50
2022-07-27T05:36:33.816Z,70.70
2022-07-27T05:37:33.834Z,70.41
2022-07-27T05:39:38.334Z,71.30
2022-07-27T05:40:37.883Z,71.49
2022-07-27T05:42:41.915Z,73.67
2022-07-27T05:43:41.925Z,74.54
2022-07-27T05:45:46.506Z,75.02
2022-07-27T05:46:45.983Z,75.46
2022-07-27T05:48:50.062Z,76.04
2022-07-27T05:49:50.025Z,76.57
2022-07-27T05:51:54.528Z,76.77
2022-07-27T05:52:54.081Z,77.06
2022-07-27T05:54:58.117Z,76.14
2022-07-27T05:55:59.586Z,76.46
2022-07-27T05:58:02.622Z,74.44
2022-07-27T05:59:06.786Z,73.47
2022-07-27T06:01:06.742Z,72.45
2022-07-27T06:02:06.719Z,72.49
2022-07-27T06:03:06.792Z,71.66
2022-07-27T06:04:06.777Z,70.79
2022-07-27T06:05:09.423Z,70.44
2022-07-27T06:06:06.865Z,68.93
2022-07-27T06:07:06.870Z,67.62
2022-07-27T06:08:06.899Z,66.75
2022-07-27T06:09:06.932Z,66.85
2022-07-27T06:10:06.963Z,67.00
2022-07-27T06:11:06.994Z,66.62
2022-07-27T06:12:07.024Z,67.20
2022-07-27T06:13:07.054Z,67.55
2022-07-27T06:14:07.090Z,68.61
2022-07-27T06:15:07.118Z,69.35
2022-07-27T06:16:07.250Z,69.93
2022-07-27T06:17:07.183Z,69.83
2022-07-27T06:18:07.224Z,70.21
2022-07-27T06:19:07.241Z,69.83
2022-07-27T06:20:07.277Z,70.02
2022-07-27T06:21:07.307Z,70.41
2022-07-27T06:22:07.331Z,70.70
2022-07-27T06:23:07.777Z,70.50
2022-07-27T06:24:07.398Z,70.70
2022-07-27T06:25:07.428Z,70.12
2022-07-27T06:26:07.460Z,70.54
2022-07-27T06:27:07.488Z,69.45
2022-07-27T06:28:07.520Z,67.17
2022-07-27T06:29:10.898Z,66.14
2022-07-27T06:30:07.581Z,64.24
2022-07-27T06:31:07.679Z,62.31
2022-07-27T06:32:07.950Z,62.02
2022-07-27T06:33:07.682Z,62.44
2022-07-27T06:34:11.499Z,62.44
2022-07-27T06:35:07.745Z,61.08
2022-07-27T06:36:07.777Z,60.79
2022-07-27T06:37:07.811Z,61.57
2022-07-27T06:38:07.845Z,60.50
2022-07-27T06:39:07.873Z,60.50
2022-07-27T06:40:07.909Z,60.31
2022-07-27T06:41:07.942Z,60.69
2022-07-27T06:42:07.974Z,61.76
2022-07-27T06:43:08.010Z,62.12
2022-07-27T06:44:08.041Z,63.47
2022-07-27T06:45:08.073Z,64.01
2022-07-27T06:46:08.106Z,64.08
2022-07-27T06:47:08.191Z,64.08
2022-07-27T06:48:08.169Z,63.95
2022-07-27T06:49:08.298Z,64.66
2022-07-27T06:50:08.237Z,64.95
2022-07-27T06:51:08.269Z,64.37
2022-07-27T06:52:08.299Z,64.05
2022-07-27T06:53:08.334Z,65.20
2022-07-27T06:54:08.363Z,66.14
2022-07-27T06:55:08.400Z,66.24
2022-07-27T06:56:08.489Z,65.75
2022-07-27T06:57:08.464Z,66.72
2022-07-27T06:58:08.498Z,66.88
2022-07-27T06:59:08.759Z,66.88
2022-07-27T07:00:08.562Z,66.88
2022-07-27T07:01:08.627Z,67.65
2022-07-27T07:02:08.632Z,67.84
2022-07-27T07:03:08.659Z,68.32
2022-07-27T07:04:08.901Z,67.74
2022-07-27T07:05:08.725Z,68.04
2022-07-27T07:06:08.758Z,68.90
2022-07-27T07:07:08.793Z,68.80
2022-07-27T07:08:08.815Z,68.52
2022-07-27T07:09:09.119Z,69.19
2022-07-27T07:10:08.885Z,68.87
2022-07-27T07:11:08.918Z,70.09
2022-07-27T07:12:08.945Z,70.18
2022-07-27T07:13:08.981Z,70.66
2022-07-27T07:14:09.008Z,70.56
2022-07-27T07:15:09.036Z,71.14
2022-07-27T07:16:09.120Z,71.53
2022-07-27T07:17:09.102Z,71.81
2022-07-27T07:18:09.131Z,71.72
2022-07-27T07:19:09.378Z,72.39
2022-07-27T07:20:09.198Z,72.59
2022-07-27T07:21:09.228Z,70.66
2022-07-27T07:22:09.251Z,71.04
2022-07-27T07:23:09.288Z,70.79
2022-07-27T07:24:09.317Z,70.12
2022-07-27T07:25:09.348Z,70.41
2022-07-27T07:26:09.378Z,70.31
2022-07-27T07:27:09.408Z,69.06
2022-07-27T07:28:09.441Z,68.13
2022-07-27T07:29:09.833Z,67.94
2022-07-27T07:30:09.505Z,68.29
2022-07-27T07:31:09.576Z,68.38
2022-07-27T07:32:09.565Z,67.84
2022-07-27T07:33:09.600Z,68.04
2022-07-27T07:34:09.630Z,67.55
2022-07-27T07:35:09.656Z,67.94
2022-07-27T07:36:13.133Z,68.99
2022-07-27T07:37:09.721Z,67.74
2022-07-27T07:38:09.751Z,68.13
2022-07-27T07:39:10.045Z,67.30
2022-07-27T07:40:39.987Z,66.82
2022-07-27T07:41:09.850Z,66.91
2022-07-27T07:42:11.112Z,67.30
2022-07-27T07:43:09.903Z,66.82
2022-07-27T07:44:09.933Z,66.62
2022-07-27T07:45:09.974Z,66.75
2022-07-27T07:46:10.059Z,66.91
2022-07-27T07:47:10.178Z,67.14
2022-07-27T07:48:10.064Z,66.82
2022-07-27T07:49:10.527Z,66.43
2022-07-27T07:50:10.123Z,66.72
2022-07-27T07:51:10.151Z,67.00
2022-07-27T07:52:10.185Z,66.82
2022-07-27T07:53:10.212Z,65.85
2022-07-27T07:54:10.246Z,64.98
2022-07-27T07:55:10.280Z,64.59
2022-07-27T07:56:10.308Z,65.27
2022-07-27T07:57:10.342Z,65.47
2022-07-27T07:58:10.369Z,66.30
2022-07-27T07:59:10.767Z,66.39
2022-07-27T08:00:10.432Z,65.81
2022-07-27T08:01:10.462Z,66.11
2022-07-27T08:02:10.574Z,65.88
2022-07-27T08:03:10.597Z,67.03
2022-07-27T08:04:10.553Z,67.52
2022-07-27T08:05:10.586Z,67.39
2022-07-27T08:06:10.614Z,68.26
2022-07-27T08:07:10.649Z,68.35
2022-07-27T08:08:10.675Z,68.84
2022-07-27T08:09:11.001Z,69.60
2022-07-27T08:10:10.738Z,70.18
2022-07-27T08:11:10.767Z,69.60
2022-07-27T08:12:10.797Z,69.02
2022-07-27T08:13:10.828Z,69.41
2022-07-27T08:14:10.858Z,69.54
2022-07-27T08:15:10.888Z,69.35
2022-07-27T08:16:10.987Z,67.16
2022-07-27T08:17:10.948Z,67.07
2022-07-27T08:18:10.980Z,66.11
2022-07-27T08:19:11.552Z,65.43
2022-07-27T08:20:11.042Z,65.14
2022-07-27T08:21:11.069Z,65.24
2022-07-27T08:22:11.101Z,66.78
2022-07-27T08:23:11.129Z,65.33
2022-07-27T08:24:11.161Z,66.11
2022-07-27T08:25:11.232Z,64.95
2022-07-27T08:26:11.224Z,64.56
2022-07-27T08:27:11.250Z,63.79
2022-07-27T08:28:11.281Z,63.79
2022-07-27T08:29:14.315Z,63.98
2022-07-27T08:30:11.720Z,64.18
2022-07-27T08:31:14.608Z,63.21
2022-07-27T08:32:11.490Z,63.12
2022-07-27T08:33:11.435Z,64.37
2022-07-27T08:34:11.463Z,63.79
2022-07-27T08:35:11.496Z,63.89
2022-07-27T08:36:11.523Z,64.40
2022-07-27T08:37:15.339Z,64.02
2022-07-27T08:38:11.584Z,64.21
2022-07-27T08:39:25.165Z,63.09
2022-07-27T08:41:11.675Z,62.22
2022-07-27T08:42:11.706Z,61.67
2022-07-27T08:43:11.734Z,60.77
2022-07-27T08:44:11.766Z,60.19
2022-07-27T08:45:11.799Z,61.90
2022-07-27T08:46:11.934Z,61.99
2022-07-27T08:47:11.860Z,62.28
2022-07-27T08:48:11.891Z,62.18
2022-07-27T08:49:12.359Z,63.44
2022-07-27T08:50:11.976Z,63.34
2022-07-27T08:51:11.983Z,63.02
2022-07-27T08:52:12.017Z,62.25
2022-07-27T08:53:12.045Z,62.93
2022-07-27T08:54:12.076Z,62.35
2022-07-27T08:55:12.109Z,62.32
2022-07-27T08:56:12.140Z,62.12
2022-07-27T08:57:12.166Z,63.28
2022-07-27T08:58:12.198Z,63.95
2022-07-27T08:59:12.482Z,63.85
2022-07-27T09:00:12.260Z,63.57
2022-07-27T09:01:12.284Z,63.60
2022-07-27T09:02:12.420Z,63.89
2022-07-27T09:03:18.604Z,64.66
2022-07-27T09:04:12.379Z,64.40
2022-07-27T09:05:12.412Z,62.96
2022-07-27T09:06:12.442Z,60.38
2022-07-27T09:07:12.469Z,59.61
2022-07-27T09:08:12.504Z,60.35
2022-07-27T09:09:12.776Z,59.97
2022-07-27T09:10:12.563Z,59.68
2022-07-27T09:11:12.598Z,59.48
2022-07-27T09:12:12.620Z,60.55
2022-07-27T09:13:12.651Z,60.74
2022-07-27T09:14:12.694Z,60.64
2022-07-27T09:15:12.717Z,60.26
2022-07-27T09:16:20.779Z,60.10
2022-07-27T09:17:47.173Z,60.48
2022-07-27T09:18:12.828Z,59.52
2022-07-27T09:19:13.166Z,57.97
2022-07-27T09:20:17.698Z,58.19
2022-07-27T09:21:12.895Z,58.29
2022-07-27T09:22:12.929Z,58.19
2022-07-27T09:23:12.957Z,57.97
2022-07-27T09:24:36.805Z,58.36
2022-07-27T09:25:13.023Z,58.55
2022-07-27T09:26:29.541Z,58.65
2022-07-27T09:27:13.081Z,59.20
2022-07-27T09:28:13.112Z,59.97
2022-07-27T09:29:13.723Z,59.78
2022-07-27T09:30:13.178Z,60.52
2022-07-27T09:31:13.238Z,60.52
2022-07-27T09:32:13.237Z,60.52
2022-07-27T09:33:13.264Z,60.42
2022-07-27T09:34:13.296Z,60.61
2022-07-27T09:35:13.324Z,61.68
2022-07-27T09:36:13.356Z,61.65
2022-07-27T09:37:13.388Z,60.20
2022-07-27T09:38:13.413Z,60.77
2022-07-27T09:39:13.574Z,60.20
2022-07-27T09:40:13.475Z,61.07
2022-07-27T09:41:13.558Z,60.58
2022-07-27T09:42:42.269Z,61.45
2022-07-27T09:44:12.440Z,60.30
2022-07-27T09:44:31.854Z,59.65
2022-07-27T09:45:13.628Z,59.36
2022-07-27T09:46:13.720Z,58.49
2022-07-27T09:47:13.684Z,59.48
2022-07-27T09:48:13.718Z,61.74
2022-07-27T09:49:13.806Z,60.38
2022-07-27T09:50:13.853Z,59.16
2022-07-27T09:51:57.703Z,58.12
2022-07-27T09:52:13.841Z,57.35
2022-07-27T09:53:41.520Z,55.52
2022-07-27T09:54:14.299Z,54.46
2022-07-27T09:55:13.933Z,53.91
2022-07-27T09:56:13.965Z,54.17
2022-07-27T09:57:14.000Z,53.52
2022-07-27T09:58:15.498Z,53.23
2022-07-27T09:59:14.057Z,53.20
2022-07-27T10:00:14.312Z,54.27
2022-07-27T10:01:14.175Z,54.75
2022-07-27T10:02:14.333Z,55.23
2022-07-27T10:03:14.183Z,56.26
2022-07-27T10:04:14.587Z,56.07
2022-07-27T10:05:14.324Z,55.76
2022-07-27T10:06:14.277Z,55.27
2022-07-27T10:07:14.310Z,55.27
2022-07-27T10:08:14.338Z,54.86
2022-07-27T10:09:14.373Z,55.24
2022-07-27T10:10:14.531Z,55.44
2022-07-27T10:11:14.433Z,56.49
2022-07-27T10:12:14.463Z,57.17
2022-07-27T10:13:14.493Z,56.49
2022-07-27T10:14:15.063Z,56.49
2022-07-27T10:15:14.576Z,55.92
2022-07-27T10:16:14.657Z,56.11
2022-07-27T10:17:14.616Z,56.69
2022-07-27T10:18:14.648Z,57.87
2022-07-27T10:19:14.680Z,56.62
2022-07-27T10:20:14.761Z,57.10
2022-07-27T10:21:14.735Z,57.20
2022-07-27T10:22:14.773Z,55.66
2022-07-27T10:23:14.799Z,55.59
2022-07-27T10:24:15.317Z,54.53
2022-07-27T10:25:14.861Z,54.53
2022-07-27T10:26:14.895Z,55.10
2022-07-27T10:27:14.927Z,55.90
2022-07-27T10:28:14.955Z,53.66
2022-07-27T10:29:14.987Z,52.23
2022-07-27T10:30:15.019Z,52.01
2022-07-27T10:31:15.087Z,52.59
2022-07-27T10:32:15.082Z,53.27
2022-07-27T10:33:15.112Z,53.17
2022-07-27T10:34:15.660Z,53.47
2022-07-27T10:35:15.176Z,53.08
2022-07-27T10:36:16.973Z,53.17
2022-07-27T10:37:15.236Z,53.59
2022-07-27T10:38:15.275Z,52.04
2022-07-27T10:39:15.301Z,53.08
2022-07-27T10:40:15.333Z,53.39
2022-07-27T10:41:15.363Z,53.11
2022-07-27T10:42:15.393Z,52.53
2022-07-27T10:43:15.427Z,52.91
2022-07-27T10:44:15.828Z,53.47
2022-07-27T10:45:15.492Z,53.27
2022-07-27T10:46:15.574Z,53.37
2022-07-27T10:47:15.549Z,53.95
2022-07-27T10:48:15.582Z,54.05
2022-07-27T10:49:15.673Z,53.95
2022-07-27T10:50:15.645Z,54.33
2022-07-27T10:51:15.683Z,55.01
2022-07-27T10:52:15.709Z,54.43
2022-07-27T10:53:15.737Z,54.24
2022-07-27T10:54:15.781Z,53.56
2022-07-27T10:55:15.802Z,53.95
2022-07-27T10:56:15.832Z,54.07
2022-07-27T10:57:15.865Z,54.94
2022-07-27T10:58:15.895Z,54.49
2022-07-27T10:59:15.926Z,54.68
2022-07-27T11:00:19.712Z,54.49
2022-07-27T11:01:16.080Z,54.29
2022-07-27T11:02:16.020Z,54.19
2022-07-27T11:03:16.054Z,53.42
2022-07-27T11:04:16.593Z,53.61
2022-07-27T11:05:57.942Z,53.81
2022-07-27T11:06:32.445Z,54.19
2022-07-27T11:07:25.658Z,55.07
2022-07-27T11:10:16.276Z,55.07
2022-07-27T11:11:16.378Z,55.26
2022-07-27T11:12:16.339Z,54.03
2022-07-27T11:13:16.370Z,53.64
2022-07-27T11:14:19.015Z,52.29
2022-07-27T11:15:16.435Z,51.32
2022-07-27T11:16:23.773Z,51.78
2022-07-27T11:17:48.654Z,50.91
2022-07-27T11:18:16.570Z,51.29
2022-07-27T11:19:17.144Z,51.87
2022-07-27T11:20:16.611Z,52.17
2022-07-27T11:21:21.927Z,51.87
2022-07-27T11:22:28.565Z,51.17
2022-07-27T11:24:16.951Z,51.75
2022-07-27T11:25:16.756Z,52.43
2022-07-27T11:26:16.855Z,53.52
2022-07-27T11:27:19.950Z,52.17
2022-07-27T11:28:16.852Z,52.55
2022-07-27T11:29:16.883Z,52.17
2022-07-27T11:30:16.918Z,51.78
2022-07-27T11:31:32.464Z,52.17
2022-07-27T11:32:16.982Z,53.42
2022-07-27T11:33:17.012Z,53.61
2022-07-27T11:34:17.045Z,52.84
2022-07-27T11:35:19.949Z,52.07
2022-07-27T11:36:17.108Z,52.45
2022-07-27T11:37:17.143Z,53.13
2022-07-27T11:38:17.173Z,53.61
2022-07-27T11:39:25.252Z,53.52
2022-07-27T11:40:48.184Z,53.61
2022-07-27T11:41:28.369Z,53.03
2022-07-27T11:42:21.271Z,53.01
2022-07-27T11:43:17.329Z,52.43
2022-07-27T11:44:17.362Z,52.14
2022-07-27T11:45:17.394Z,52.53
2022-07-27T11:46:17.591Z,53.30
2022-07-27T11:47:17.455Z,53.11
2022-07-27T11:48:17.487Z,53.49
2022-07-27T11:49:17.778Z,53.56
2022-07-27T11:50:17.551Z,52.98
2022-07-27T11:51:17.595Z,53.85
2022-07-27T11:52:17.722Z,53.56
2022-07-27T11:53:17.645Z,53.56
2022-07-27T11:54:17.682Z,53.47
2022-07-27T11:55:17.708Z,53.47
2022-07-27T11:56:17.738Z,53.56
2022-07-27T11:57:17.769Z,53.47
2022-07-27T11:58:17.804Z,53.47
2022-07-27T11:59:18.094Z,54.05
2022-07-27T12:00:17.864Z,53.66
2022-07-27T12:01:17.889Z,53.27
2022-07-27T12:02:18.303Z,53.37
2022-07-27T12:03:17.953Z,53.08
2022-07-27T12:04:17.987Z,53.37
2022-07-27T12:05:18.099Z,53.56
2022-07-27T12:06:18.046Z,55.30
2022-07-27T12:07:18.076Z,54.53
2022-07-27T12:08:18.111Z,54.91
2022-07-27T12:09:18.140Z,53.75
2022-07-27T12:10:18.171Z,53.17
2022-07-27T12:11:18.200Z,52.21
2022-07-27T12:12:18.232Z,53.56
2022-07-27T12:13:18.262Z,53.37
2022-07-27T12:14:18.291Z,53.27
2022-07-27T12:15:45.281Z,52.98
2022-07-27T12:18:27.050Z,53.85
2022-07-27T12:19:26.565Z,53.75
2022-07-27T12:21:31.730Z,52.69
2022-07-27T12:22:30.625Z,52.59
2022-07-27T12:24:35.122Z,52.04
2022-07-27T12:25:34.687Z,51.07
2022-07-27T12:27:38.723Z,51.27
2022-07-27T12:28:38.736Z,50.98
2022-07-27T12:30:43.261Z,51.07
2022-07-27T12:31:42.795Z,51.29
2022-07-27T12:33:48.348Z,51.37
2022-07-27T12:34:46.854Z,51.01
2022-07-27T12:36:39.800Z,50.23
2022-07-27T12:37:39.824Z,50.81
2022-07-27T12:39:44.321Z,51.20
2022-07-27T12:40:43.884Z,49.77
2022-07-27T12:42:47.913Z,51.20
2022-07-27T12:43:47.933Z,51.49
2022-07-27T12:45:52.460Z,52.09
2022-07-27T12:46:52.010Z,51.61
2022-07-27T12:48:56.073Z,52.48
2022-07-27T12:49:56.068Z,52.09
2022-07-27T12:52:00.565Z,52.97
2022-07-27T12:53:00.120Z,52.48
2022-07-27T12:55:04.158Z,50.74
2022-07-27T12:56:04.186Z,51.23
2022-07-27T12:58:08.684Z,50.81
2022-07-27T12:59:08.256Z,50.43
2022-07-27T13:01:01.449Z,49.55
2022-07-27T13:02:01.540Z,49.63
2022-07-27T13:04:06.426Z,50.89
2022-07-27T13:05:05.975Z,50.43
2022-07-27T13:06:12.662Z,51.39
2022-07-27T13:07:06.020Z,50.91
2022-07-27T13:08:06.054Z,51.29
2022-07-27T13:09:06.091Z,50.71
2022-07-27T13:10:06.189Z,50.93
2022-07-27T13:11:06.146Z,49.27
2022-07-27T13:12:06.175Z,50.13
2022-07-27T13:13:06.206Z,50.43
2022-07-27T13:14:06.242Z,50.71
2022-07-27T13:15:06.268Z,51.37
2022-07-27T13:16:06.323Z,51.27
2022-07-27T13:17:06.370Z,51.75
2022-07-27T13:18:06.359Z,52.91
2022-07-27T13:19:06.391Z,52.14
2022-07-27T13:20:06.423Z,52.33
2022-07-27T13:21:06.455Z,53.33
2022-07-27T13:22:06.483Z,52.17
2022-07-27T13:23:06.512Z,52.33
2022-07-27T13:24:06.545Z,51.85
2022-07-27T13:25:15.946Z,51.37
2022-07-27T13:26:06.609Z,51.07
2022-07-27T13:27:06.675Z,51.27
2022-07-27T13:28:06.670Z,52.23
2022-07-27T13:29:06.700Z,51.56
2022-07-27T13:30:06.725Z,50.31
2022-07-27T13:31:06.757Z,50.89
2022-07-27T13:32:06.842Z,50.01
2022-07-27T13:33:06.819Z,50.04
2022-07-27T13:34:06.846Z,49.75
2022-07-27T13:35:06.879Z,49.46
2022-07-27T13:36:06.909Z,51.01
2022-07-27T13:37:06.954Z,50.71